Time;durP1;ratioP1;P1;durP2;ratioP2;P2;SDS_P1;SDS_P2;PMS_P1;PMS_P2;Temp;Humidity;BMP_temperature;BMP_pressure;BME280_temperature;BME280_humidity;BME280_pressure;Samples;Min_cycle;Max_cycle;Signal;HPM_P1;HPM_P2
2023/05/15 00:01:06;;;;;;;40.78;30.75;;;13.90;99.90;;;;;;5106207;28;20067;-80
2023/05/15 00:03:32;;;;;;;37.85;28.25;;;11.50;99.90;;;;;;5106745;28;20120;-79
2023/05/15 00:05:59;;;;;;;39.95;30.67;;;13.10;99.90;;;;;;5090058;28;20059;-79
2023/05/15 00:08:25;;;;;;;39.03;30.25;;;11.50;99.90;;;;;;5089866;28;20429;-78
2023/05/15 00:10:51;;;;;;;41.05;31.40;;;13.80;99.90;;;;;;5107329;28;20494;-81
2023/05/15 00:13:17;;;;;;;40.47;30.50;;;12.60;99.90;;;;;;5107618;28;20177;-79
2023/05/15 00:15:44;;;;;;;44.33;31.25;;;11.50;99.90;;;;;;5108030;28;20047;-80
2023/05/15 00:18:09;;;;;;;42.38;31.38;;;11.50;99.90;;;;;;5089758;28;20073;-81
2023/05/15 00:20:35;;;;;;;43.15;29.77;;;13.40;99.90;;;;;;5106424;28;20372;-80
2023/05/15 00:23:01;;;;;;;41.95;29.55;;;11.80;99.90;;;;;;5107853;28;20039;-80
2023/05/15 00:25:26;;;;;;;38.20;28.38;;;11.60;99.90;;;;;;5089982;28;20420;-80
2023/05/15 00:27:53;;;;;;;40.97;30.08;;;11.40;99.90;;;;;;5089397;28;20092;-80
2023/05/15 00:30:19;;;;;;;47.00;32.80;;;11.40;99.90;;;;;;5100018;28;20079;-81
2023/05/15 00:32:44;;;;;;;43.92;30.20;;;12.80;99.90;;;;;;5106931;28;20070;-80
2023/05/15 00:35:10;;;;;;;42.40;29.67;;;11.30;99.90;;;;;;5107476;28;20493;-79
2023/05/15 00:37:36;;;;;;;40.10;27.85;;;12.50;99.90;;;;;;5089780;28;20040;-80
2023/05/15 00:40:01;;;;;;;41.28;30.25;;;11.40;99.90;;;;;;5091621;28;20040;-78
2023/05/15 00:42:27;;;;;;;44.47;31.13;;;11.40;99.90;;;;;;5109426;28;20044;-80
2023/05/15 00:44:55;;;;;;;45.75;31.67;;;11.40;99.90;;;;;;5110709;28;20092;-79
2023/05/15 00:47:22;;;;;;;42.08;31.48;;;9.70;99.90;;;;;;5102312;28;20089;-79
2023/05/15 00:49:49;;;;;;;38.90;30.17;;;11.20;99.90;;;;;;5093165;28;20051;-80
2023/05/15 00:52:15;;;;;;;40.10;31.38;;;11.20;99.90;;;;;;5111118;28;20108;-78
2023/05/15 00:54:41;;;;;;;40.47;30.67;;;13.10;99.90;;;;;;5111664;27;20037;-80
2023/05/15 00:57:08;;;;;;;39.65;31.30;;;13.20;99.90;;;;;;5092312;28;20387;-80
2023/05/15 00:59:35;;;;;;;39.38;29.90;;;9.50;99.90;;;;;;5111272;28;20058;-79
2023/05/15 01:02:00;;;;;;;39.20;31.15;;;11.90;99.90;;;;;;5111116;28;20084;-80
2023/05/15 01:04:26;;;;;;;36.05;28.38;;;11.30;99.90;;;;;;5092093;28;20126;-80
2023/05/15 01:06:52;;;;;;;41.08;29.67;;;11.30;99.90;;;;;;5111840;28;20032;-80
2023/05/15 01:09:19;;;;;;;47.28;31.73;;;11.30;99.90;;;;;;5092279;28;20032;-80
2023/05/15 01:11:46;;;;;;;41.25;31.35;;;13.30;99.90;;;;;;5092983;28;20080;-80
2023/05/15 01:14:12;;;;;;;38.17;29.60;;;11.10;99.90;;;;;;5092580;28;20040;-80
2023/05/15 01:16:37;;;;;;;42.97;31.90;;;13.20;99.90;;;;;;5074854;28;20059;-81
2023/05/15 01:19:03;;;;;;;46.20;32.58;;;13.30;99.90;;;;;;5109737;28;20250;-82
2023/05/15 01:21:35;;;;;;;38.53;30.10;;;11.50;99.90;;;;;;5092532;28;20132;-81
2023/05/15 01:24:22;;;;;;;41.90;31.90;;;11.20;99.90;;;;;;5091678;28;20063;-81
2023/05/15 01:27:11;;;;;;;41.17;32.30;;;11.20;99.90;;;;;;5110408;28;20464;-81
2023/05/15 01:29:47;;;;;;;37.72;29.60;;;11.30;99.90;;;;;;5086219;28;20042;-81
2023/05/15 01:32:48;;;;;;;37.33;28.58;;;11.30;99.90;;;;;;5101019;28;20096;-81
2023/05/15 01:35:21;;;;;;;37.85;28.88;;;11.20;99.90;;;;;;5092615;28;20101;-80
2023/05/15 01:38:03;;;;;;;43.03;28.83;;;11.30;99.90;;;;;;5092505;28;20436;-81
2023/05/15 01:40:29;;;;;;;37.45;29.92;;;11.20;99.90;;;;;;5102926;28;20028;-81
2023/05/15 01:43:03;;;;;;;37.28;29.25;;;12.70;99.90;;;;;;5075676;28;20525;-79
2023/05/15 01:45:35;;;;;;;39.80;29.02;;;12.20;99.90;;;;;;5067227;28;20088;-82
2023/05/15 01:48:06;;;;;;;40.35;29.48;;;11.20;99.90;;;;;;5094586;28;20039;-82
2023/05/15 01:50:34;;;;;;;38.00;28.88;;;11.30;99.90;;;;;;5093512;28;20043;-81
2023/05/15 01:53:01;;;;;;;44.20;30.25;;;11.30;99.90;;;;;;5091260;28;20074;-81
2023/05/15 01:55:29;;;;;;;48.80;32.35;;;13.30;99.90;;;;;;5108877;28;20483;-81
2023/05/15 01:57:59;;;;;;;40.38;28.80;;;11.10;99.90;;;;;;5092188;28;20074;-82
2023/05/15 02:00:26;;;;;;;43.17;31.42;;;11.20;99.90;;;;;;5083065;28;20043;-81
2023/05/15 02:02:53;;;;;;;42.72;31.55;;;11.00;99.90;;;;;;5092525;28;20444;-81
2023/05/15 02:05:19;;;;;;;35.10;27.45;;;13.10;99.90;;;;;;5108688;28;20047;-82
2023/05/15 02:07:48;;;;;;;39.97;30.38;;;12.60;99.90;;;;;;5108433;28;20437;-81
2023/05/15 02:10:17;;;;;;;42.83;30.15;;;11.00;99.90;;;;;;5108670;28;20137;-81
2023/05/15 02:12:43;;;;;;;39.88;30.33;;;10.90;99.90;;;;;;5107936;28;20044;-81
2023/05/15 02:15:10;;;;;;;41.42;29.55;;;10.90;99.90;;;;;;5091015;28;20044;-81
2023/05/15 02:17:38;;;;;;;42.40;29.17;;;10.70;99.90;;;;;;5108563;28;20050;-81
2023/05/15 02:20:07;;;;;;;39.70;28.67;;;11.60;99.90;;;;;;5107702;28;20035;-81
2023/05/15 02:22:34;;;;;;;38.75;28.15;;;10.70;99.90;;;;;;5108112;28;20042;-80
2023/05/15 02:25:01;;;;;;;38.97;27.38;;;12.30;99.90;;;;;;5091559;28;20084;-81
2023/05/15 02:28:05;;;;;;;37.45;28.77;;;10.80;99.90;;;;;;5100976;28;20093;-82
2023/05/15 02:30:52;;;;;;;;;;;11.70;99.90;;;;;;5097715;28;20136;-80
2023/05/15 02:33:31;;;;;;;37.95;25.80;;;10.90;99.90;;;;;;5090889;28;19927;-81
2023/05/15 02:36:05;;;;;;;35.92;27.05;;;12.50;99.90;;;;;;5107788;28;20036;-82
2023/05/15 02:38:43;;;;;;;36.15;27.25;;;10.90;99.90;;;;;;5101750;28;20390;-81
2023/05/15 02:41:09;;;;;;;32.38;25.75;;;10.60;99.90;;;;;;5090328;28;20489;-81
2023/05/15 02:43:36;;;;;;;40.65;27.92;;;13.20;99.90;;;;;;5108093;28;20146;-81
2023/05/15 02:46:02;;;;;;;43.78;28.38;;;11.80;99.90;;;;;;5108334;28;20028;-81
2023/05/15 02:48:30;;;;;;;33.13;26.05;;;10.70;99.90;;;;;;5099158;28;20039;-81
2023/05/15 02:50:57;;;;;;;32.03;25.58;;;11.70;99.90;;;;;;5091042;28;20261;-80
2023/05/15 02:53:23;;;;;;;46.53;30.88;;;11.00;99.90;;;;;;5073824;28;20498;-81
2023/05/15 02:55:48;;;;;;;44.20;29.77;;;11.00;99.90;;;;;;5090533;28;20089;-80
2023/05/15 02:58:14;;;;;;;38.25;28.02;;;10.60;99.90;;;;;;5108851;28;20035;-81
2023/05/15 03:00:41;;;;;;;40.33;29.70;;;12.70;99.90;;;;;;5090489;28;20575;-82
2023/05/15 03:03:07;;;;;;;33.63;26.13;;;10.40;99.90;;;;;;5107571;28;20552;-81
2023/05/15 03:05:37;;;;;;;39.67;27.13;;;9.40;99.90;;;;;;5091236;28;20051;-81
2023/05/15 03:08:04;;;;;;;37.38;27.95;;;10.40;99.90;;;;;;5091170;28;20410;-81
2023/05/15 03:10:33;;;;;;;47.33;32.88;;;10.40;99.90;;;;;;5100274;28;20122;-80
2023/05/15 03:12:59;;;;;;;42.05;29.08;;;10.30;99.90;;;;;;5090474;28;20134;-81
2023/05/15 03:15:24;;;;;;;41.58;32.35;;;10.20;99.90;;;;;;5108592;28;20056;-81
2023/05/15 03:17:50;;;;;;;39.83;32.92;;;10.10;99.90;;;;;;5108683;28;20482;-81
2023/05/15 03:20:16;;;;;;;39.03;30.23;;;10.10;99.90;;;;;;5090497;28;20320;-81
2023/05/15 03:22:41;;;;;;;45.05;35.42;;;10.10;99.90;;;;;;5107187;28;20039;-81
2023/05/15 03:25:10;;;;;;;44.13;34.40;;;10.20;99.90;;;;;;5089292;28;20040;-81
2023/05/15 03:27:37;;;;;;;41.72;34.20;;;12.30;99.90;;;;;;5108643;28;20585;-81
2023/05/15 03:30:03;;;;;;;43.40;33.92;;;10.00;99.90;;;;;;5106944;28;20433;-81
2023/05/15 03:32:29;;;;;;;39.88;29.88;;;12.00;99.90;;;;;;5108923;28;20499;-81
2023/05/15 03:34:55;;;;;;;44.78;31.33;;;12.20;99.90;;;;;;5108013;28;20088;-80
2023/05/15 03:37:20;;;;;;;38.95;28.85;;;10.10;99.90;;;;;;5089763;28;20544;-80
2023/05/15 03:39:46;;;;;;;38.10;28.73;;;11.90;99.90;;;;;;5109698;28;20403;-79
2023/05/15 03:42:21;;;;;;;31.25;26.23;;;9.90;99.90;;;;;;5110444;28;20089;-80
2023/05/15 03:44:46;;;;;;;34.30;24.67;;;9.90;99.90;;;;;;5090426;28;20085;-79
2023/05/15 03:47:12;;;;;;;32.60;24.77;;;9.90;99.90;;;;;;5090379;28;20031;-80
2023/05/15 03:49:38;;;;;;;30.35;23.83;;;11.60;99.90;;;;;;5107209;28;20487;-81
2023/05/15 03:52:04;;;;;;;28.55;23.05;;;9.90;99.90;;;;;;5106401;28;20146;-82
2023/05/15 03:54:29;;;;;;;27.55;23.73;;;10.00;99.90;;;;;;5090018;28;20067;-81
2023/05/15 03:56:56;;;;;;;30.23;23.23;;;9.90;99.90;;;;;;5107206;28;20078;-80
2023/05/15 03:59:21;;;;;;;33.22;23.52;;;10.00;99.90;;;;;;5106234;28;20101;-82
2023/05/15 04:01:48;;;;;;;28.95;23.80;;;10.00;99.90;;;;;;5108837;28;20035;-81
2023/05/15 04:04:17;;;;;;;26.42;22.50;;;12.40;99.90;;;;;;5090717;28;20048;-80
2023/05/15 04:06:44;;;;;;;27.77;23.38;;;10.40;99.90;;;;;;5107739;28;20123;-82
2023/05/15 04:09:10;;;;;;;27.90;22.55;;;;;;;;;;5106939;28;20040;-81
2023/05/15 04:11:36;;;;;;;26.48;21.10;;;10.20;99.90;;;;;;5107305;28;20394;-82
2023/05/15 04:14:01;;;;;;;24.58;21.98;;;11.60;99.90;;;;;;5106165;28;20254;-81
2023/05/15 04:16:27;;;;;;;26.65;21.52;;;10.30;99.90;;;;;;5110467;28;20050;-81
2023/05/15 04:18:53;;;;;;;22.33;20.08;;;10.10;99.90;;;;;;5094551;28;20047;-81
2023/05/15 04:21:19;;;;;;;22.70;20.23;;;12.10;99.90;;;;;;5111958;28;20431;-81
2023/05/15 04:23:44;;;;;;;24.05;21.55;;;10.30;99.90;;;;;;5112288;28;20047;-81
2023/05/15 04:26:10;;;;;;;21.65;19.42;;;10.30;99.90;;;;;;5110466;28;20090;-81
2023/05/15 04:28:36;;;;;;;23.67;21.05;;;11.10;99.90;;;;;;5093162;28;20035;-80
2023/05/15 04:31:01;;;;;;;22.95;20.52;;;10.30;99.90;;;;;;5110328;28;20289;-82
2023/05/15 04:33:27;;;;;;;22.27;20.02;;;11.90;99.90;;;;;;5092326;28;20074;-81
2023/05/15 04:35:54;;;;;;;22.42;19.52;;;10.90;99.90;;;;;;5094065;28;20039;-81
2023/05/15 04:38:20;;;;;;;24.25;19.20;;;10.40;99.90;;;;;;5110826;28;20051;-81
2023/05/15 04:40:47;;;;;;;22.17;19.63;;;10.20;99.90;;;;;;5093438;28;20143;-81
2023/05/15 04:43:12;;;;;;;21.63;19.23;;;10.40;99.90;;;;;;5109740;28;20058;-79
2023/05/15 04:45:38;;;;;;;25.70;19.90;;;10.50;99.90;;;;;;5093443;28;20065;-80
2023/05/15 04:48:04;;;;;;;21.95;19.27;;;10.60;99.90;;;;;;5109929;28;20031;-80
2023/05/15 04:50:29;;;;;;;21.92;19.65;;;10.60;99.90;;;;;;5093612;28;20112;-79
2023/05/15 04:53:04;;;;;;;21.45;18.30;;;12.10;99.90;;;;;;5111474;28;20483;-80
2023/05/15 04:55:30;;;;;;;25.67;20.65;;;10.60;99.90;;;;;;5091838;28;20040;-79
2023/05/15 04:57:56;;;;;;;23.55;20.08;;;12.70;99.90;;;;;;5109982;28;20043;-79
2023/05/15 05:00:22;;;;;;;21.63;19.10;;;11.10;99.90;;;;;;5109848;28;20406;-80
2023/05/15 05:02:47;;;;;;;23.05;20.52;;;10.70;99.90;;;;;;5092606;28;20043;-80
2023/05/15 05:05:13;;;;;;;20.88;18.70;;;10.70;99.90;;;;;;5092879;28;20047;-80
2023/05/15 05:07:39;;;;;;;20.90;18.83;;;11.50;99.90;;;;;;5093151;28;20475;-80
2023/05/15 05:10:05;;;;;;;23.58;17.73;;;10.70;99.90;;;;;;5093938;28;20039;-81
2023/05/15 05:12:31;;;;;;;20.17;15.75;;;10.70;99.90;;;;;;5109843;28;20444;-81
2023/05/15 05:14:56;;;;;;;17.55;15.65;;;12.90;99.90;;;;;;5109467;28;20056;-80
2023/05/15 05:17:22;;;;;;;17.80;15.77;;;10.80;99.90;;;;;;5109206;28;20097;-80
2023/05/15 05:19:48;;;;;;;19.10;17.05;;;10.60;99.90;;;;;;5092912;28;20100;-82
2023/05/15 05:22:13;;;;;;;18.73;16.77;;;10.60;99.90;;;;;;5109590;28;20147;-81
2023/05/15 05:24:39;;;;;;;16.40;14.23;;;11.90;99.90;;;;;;5091858;28;20075;-81
2023/05/15 05:27:05;;;;;;;18.48;16.50;;;12.50;99.90;;;;;;5109542;28;20395;-81
2023/05/15 05:29:32;;;;;;;18.88;16.88;;;10.80;99.90;;;;;;5110664;28;20039;-81
2023/05/15 05:31:58;;;;;;;23.17;17.85;;;10.70;99.90;;;;;;5109613;28;20395;-81
2023/05/15 05:34:23;;;;;;;20.42;18.23;;;10.80;99.90;;;;;;5112983;28;20043;-80
2023/05/15 05:36:49;;;;;;;21.05;18.90;;;10.80;99.90;;;;;;5096888;28;20407;-81
2023/05/15 05:39:15;;;;;;;23.05;18.83;;;11.00;99.90;;;;;;5094105;28;20547;-80
2023/05/15 05:41:41;;;;;;;23.23;20.73;;;10.80;99.90;;;;;;5085220;28;20540;-81
2023/05/15 05:44:07;;;;;;;22.25;19.85;;;13.20;99.90;;;;;;5109703;28;20461;-81
2023/05/15 05:46:33;;;;;;;21.38;19.15;;;10.80;99.90;;;;;;5092732;28;20485;-81
2023/05/15 05:48:59;;;;;;;22.55;20.17;;;12.20;99.90;;;;;;5109076;28;20123;-82
2023/05/15 05:51:24;;;;;;;22.80;20.35;;;10.80;99.90;;;;;;5091676;28;20077;-81
2023/05/15 05:53:50;;;;;;;24.73;20.33;;;10.90;99.90;;;;;;5092498;28;20058;-81
2023/05/15 05:56:16;;;;;;;24.88;19.90;;;10.90;99.90;;;;;;5109239;28;20095;-81
2023/05/15 05:58:42;;;;;;;19.23;17.25;;;9.30;99.90;;;;;;5108271;28;20050;-82
2023/05/15 06:01:08;;;;;;;21.85;18.38;;;10.90;99.90;;;;;;5109197;28;20132;-81
2023/05/15 06:03:33;;;;;;;21.15;18.77;;;10.90;99.90;;;;;;5109859;28;20062;-82
2023/05/15 06:05:59;;;;;;;21.60;18.85;;;12.90;99.90;;;;;;5110985;28;20047;-81
2023/05/15 06:08:25;;;;;;;22.20;19.92;;;13.00;99.90;;;;;;5108706;28;20591;-82
2023/05/15 06:10:52;;;;;;;23.85;20.67;;;11.00;99.90;;;;;;5110136;27;20082;-81
2023/05/15 06:13:18;;;;;;;34.00;27.35;;;12.70;99.90;;;;;;5108436;28;20073;-81
2023/05/15 06:15:45;;;;;;;25.10;22.38;;;11.50;99.90;;;;;;5092321;28;20642;-82
2023/05/15 06:18:10;;;;;;;26.15;21.08;;;11.10;99.90;;;;;;5092086;28;20047;-81
2023/05/15 06:20:37;;;;;;;23.60;21.15;;;11.30;99.90;;;;;;5108027;28;20055;-82
2023/05/15 06:23:06;;;;;;;22.75;20.30;;;;;;;;;;5109696;28;20091;-80
2023/05/15 06:25:31;;;;;;;22.75;20.23;;;11.40;99.90;;;;;;5091551;28;20483;-80
2023/05/15 06:27:57;;;;;;;22.25;19.95;;;12.10;99.90;;;;;;5091503;28;20039;-80
2023/05/15 06:30:23;;;;;;;23.80;18.85;;;11.50;99.90;;;;;;5092164;28;20042;-82
2023/05/15 06:32:57;;;;;;;20.80;18.63;;;11.80;99.90;;;;;;5076243;28;20062;-84
2023/05/15 06:35:25;;;;;;;20.80;18.70;;;11.60;99.90;;;;;;5111020;28;20043;-82
2023/05/15 06:37:51;;;;;;;19.08;17.02;;;11.70;99.90;;;;;;5107923;28;20047;-83
2023/05/15 06:40:17;;;;;;;19.20;17.33;;;11.50;99.90;;;;;;5108230;28;20055;-83
2023/05/15 06:42:43;;;;;;;18.42;16.58;;;11.60;99.90;;;;;;5111187;28;20410;-83
2023/05/15 06:45:10;;;;;;;21.88;17.90;;;13.10;99.90;;;;;;5108089;28;20031;-83
2023/05/15 06:47:36;;;;;;;25.00;21.02;;;11.60;99.90;;;;;;5091073;28;20044;-83
2023/05/15 06:50:04;;;;;;;23.17;20.73;;;11.70;99.90;;;;;;5111653;28;20036;-82
2023/05/15 06:52:34;;;;;;;24.77;20.13;;;11.50;99.90;;;;;;5091999;28;20044;-81
2023/05/15 06:55:19;;;;;;;21.05;18.77;;;11.50;99.90;;;;;;5094402;28;20089;-82
2023/05/15 06:57:45;;;;;;;20.67;18.63;;;11.60;99.90;;;;;;5108079;28;20512;-82
2023/05/15 07:00:11;;;;;;;21.10;19.00;;;13.20;99.90;;;;;;5090893;28;20350;-82
2023/05/15 07:02:36;;;;;;;18.35;16.38;;;11.70;99.90;;;;;;5090068;28;20051;-82
2023/05/15 07:05:02;;;;;;;17.15;15.45;;;11.80;99.90;;;;;;5108326;28;20039;-82
2023/05/15 07:07:28;;;;;;;17.27;13.93;;;11.80;99.90;;;;;;5092074;28;20044;-82
2023/05/15 07:09:53;;;;;;;16.00;14.40;;;14.60;99.90;;;;;;5108667;28;20115;-81
2023/05/15 07:12:19;;;;;;;16.50;14.85;;;14.10;99.90;;;;;;5091980;28;20107;-81
2023/05/15 07:14:45;;;;;;;15.40;13.05;;;11.80;99.90;;;;;;5108291;28;20409;-81
2023/05/15 07:17:11;;;;;;;13.63;12.23;;;11.90;99.90;;;;;;5090868;28;20052;-81
2023/05/15 07:19:36;;;;;;;12.63;11.40;;;14.00;99.90;;;;;;5115705;28;20100;-81
2023/05/15 07:22:02;;;;;;;15.20;12.30;;;12.10;99.90;;;;;;5090888;28;20494;-80
2023/05/15 07:24:28;;;;;;;12.93;11.55;;;12.20;99.90;;;;;;5108502;28;20032;-80
2023/05/15 07:26:55;;;;;;;16.10;12.88;;;12.20;99.90;;;;;;5096430;28;20043;-80
2023/05/15 07:29:22;;;;;;;12.45;11.18;;;12.20;99.90;;;;;;5111475;28;20372;-83
2023/05/15 07:31:48;;;;;;;12.38;11.18;;;12.30;99.90;;;;;;5092849;28;20138;-81
2023/05/15 07:34:13;;;;;;;14.88;12.52;;;12.30;99.90;;;;;;5108083;28;20119;-81
2023/05/15 07:36:40;;;;;;;12.70;11.40;;;13.80;99.90;;;;;;5091308;28;20517;-81
2023/05/15 07:39:07;;;;;;;12.52;10.77;;;12.30;99.90;;;;;;5108205;28;20032;-82
2023/05/15 07:41:32;;;;;;;14.80;12.10;;;12.30;99.90;;;;;;5107274;28;20049;-82
2023/05/15 07:43:58;;;;;;;16.10;13.90;;;12.30;99.90;;;;;;5107578;28;20446;-82
2023/05/15 07:46:24;;;;;;;18.83;14.90;;;12.40;99.90;;;;;;5108060;28;20390;-80
2023/05/15 07:48:49;;;;;;;15.02;12.23;;;13.00;99.90;;;;;;5109421;28;20028;-79
2023/05/15 07:51:15;;;;;;;15.40;11.73;;;12.30;99.90;;;;;;5110639;28;20078;-79
2023/05/15 07:53:41;;;;;;;13.35;11.95;;;12.30;99.90;;;;;;5111429;28;20119;-80
2023/05/15 07:56:06;;;;;;;12.20;10.88;;;12.30;99.90;;;;;;5111535;28;20108;-80
2023/05/15 07:58:35;;;;;;;16.25;11.40;;;12.30;99.90;;;;;;5110855;28;20543;-80
2023/05/15 08:01:01;;;;;;;12.52;11.13;;;14.50;99.90;;;;;;5094592;28;20036;-80
2023/05/15 08:03:27;;;;;;;13.90;11.57;;;12.30;99.90;;;;;;5111316;28;20368;-80
2023/05/15 08:05:52;;;;;;;12.45;11.15;;;11.80;99.90;;;;;;5094115;28;20560;-83
2023/05/15 08:08:18;;;;;;;13.55;12.13;;;12.30;99.90;;;;;;5094490;28;20490;-80
2023/05/15 08:10:43;;;;;;;17.30;12.15;;;12.30;99.90;;;;;;5111888;28;20462;-82
2023/05/15 08:13:09;;;;;;;14.25;11.60;;;12.60;99.90;;;;;;5110500;28;20051;-81
2023/05/15 08:15:35;;;;;;;13.05;10.80;;;13.30;99.90;;;;;;5114117;28;20158;-82
2023/05/15 08:18:00;;;;;;;14.40;11.00;;;12.40;99.90;;;;;;5094337;28;20131;-81
2023/05/15 08:20:26;;;;;;;11.57;10.38;;;13.80;99.90;;;;;;5110399;28;20040;-81
2023/05/15 08:22:51;;;;;;;13.00;10.95;;;14.60;99.90;;;;;;5110988;28;20239;-82
2023/05/15 08:25:17;;;;;;;11.63;10.30;;;12.60;99.90;;;;;;5096631;28;20035;-82
2023/05/15 08:27:43;;;;;;;12.55;11.40;;;14.60;99.90;;;;;;5076168;28;20562;-82
2023/05/15 08:30:09;;;;;;;14.95;11.85;;;12.70;99.90;;;;;;5094138;28;20039;-81
2023/05/15 08:32:34;;;;;;;12.98;11.70;;;12.70;99.90;;;;;;5093319;28;20458;-81
2023/05/15 08:35:00;;;;;;;13.88;12.30;;;12.70;99.90;;;;;;5093604;28;20043;-81
2023/05/15 08:37:26;;;;;;;14.77;12.20;;;14.90;99.90;;;;;;5093625;28;20046;-82
2023/05/15 08:39:51;;;;;;;13.70;11.70;;;12.80;99.90;;;;;;5093487;28;20090;-82
2023/05/15 08:42:23;;;;;;;16.10;12.70;;;12.80;99.90;;;;;;5112619;28;20048;-82
2023/05/15 08:44:49;;;;;;;13.27;12.02;;;12.90;99.90;;;;;;5095033;28;20043;-82
2023/05/15 08:47:15;;;;;;;13.75;11.15;;;13.40;99.90;;;;;;5094794;28;20067;-82
2023/05/15 08:50:14;;;;;;;11.80;10.70;;;13.90;99.90;;;;;;5112230;28;20079;-82
2023/05/15 08:52:42;;;;;;;12.32;11.02;;;13.10;99.90;;;;;;5096101;28;20042;-83
2023/05/15 08:55:10;;;;;;;10.85;9.75;;;13.10;99.90;;;;;;5095974;28;20039;-82
2023/05/15 08:57:36;;;;;;;11.43;10.32;;;13.20;99.90;;;;;;5078871;28;20071;-85
2023/05/15 09:00:10;;;;;;;11.15;10.05;;;13.30;99.90;;;;;;5110572;28;20071;-82
2023/05/15 09:02:53;;;;;;;11.90;10.75;;;13.50;99.90;;;;;;5108331;28;20396;-81
2023/05/15 09:05:19;;;;;;;15.68;10.20;;;13.40;99.90;;;;;;5094826;28;20036;-82
2023/05/15 09:07:46;;;;;;;14.82;13.25;;;11.40;99.90;;;;;;5111504;28;20610;-83
2023/05/15 09:10:13;;;;;;;12.80;11.50;;;14.40;99.90;;;;;;5111286;28;20034;-82
2023/05/15 09:12:43;;;;;;;11.98;10.80;;;13.40;99.90;;;;;;5111114;28;20062;-81
2023/05/15 09:15:16;;;;;;;11.60;10.40;;;13.50;99.90;;;;;;5112357;28;20036;-83
2023/05/15 09:17:44;;;;;;;11.77;10.68;;;13.60;99.90;;;;;;5097285;28;20047;-81
2023/05/15 09:20:32;;;;;;;11.00;10.00;;;13.70;99.90;;;;;;5098626;28;20044;-81
2023/05/15 09:23:03;;;;;;;15.50;11.00;;;13.80;99.90;;;;;;5092647;28;20479;-82
2023/05/15 09:25:34;;;;;;;12.38;11.00;;;13.90;99.90;;;;;;5111943;28;20039;-82
2023/05/15 09:28:00;;;;;;;14.40;10.65;;;13.90;99.90;;;;;;5111308;28;20054;-81
2023/05/15 09:30:26;;;;;;;11.30;9.98;;;16.10;99.90;;;;;;5093335;28;20039;-82
2023/05/15 09:32:54;;;;;;;12.15;10.98;;;14.00;99.90;;;;;;5112647;28;20137;-82
2023/05/15 09:35:37;;;;;;;14.52;10.63;;;14.10;99.90;;;;;;5110920;28;20056;-81
2023/05/15 09:38:11;;;;;;;13.57;10.18;;;14.20;99.90;;;;;;5101671;28;20124;-81
2023/05/15 09:40:42;;;;;;;14.55;11.00;;;14.30;99.90;;;;;;5110093;28;20044;-81
2023/05/15 09:43:12;;;;;;;15.13;13.25;;;14.40;99.90;;;;;;5110165;28;20039;-82
2023/05/15 09:45:38;;;;;;;13.15;11.93;;;15.30;99.90;;;;;;5110973;28;20479;-82
2023/05/15 09:48:05;;;;;;;10.60;9.55;;;15.70;99.90;;;;;;5092531;28;20054;-82
2023/05/15 09:50:37;;;;;;;16.55;12.38;;;14.70;99.90;;;;;;5111148;28;20046;-82
2023/05/15 09:53:05;;;;;;;12.27;10.93;;;14.80;99.90;;;;;;5092712;28;20478;-82
2023/05/15 09:55:35;;;;;;;12.55;11.25;;;14.90;99.90;;;;;;5111038;28;20055;-81
2023/05/15 09:58:19;;;;;;;14.30;11.65;;;15.00;99.90;;;;;;5109437;28;20063;-81
2023/05/15 10:00:47;;;;;;;12.95;11.18;;;15.00;99.90;;;;;;5110344;28;20524;-81
2023/05/15 10:03:18;;;;;;;13.05;11.10;;;15.10;99.90;;;;;;5076528;28;20189;-80
2023/05/15 10:05:44;;;;;;;11.85;10.27;;;15.20;99.90;;;;;;5109071;28;20114;-80
2023/05/15 10:08:10;;;;;;;11.05;9.95;;;15.20;99.90;;;;;;5093558;28;20122;-80
2023/05/15 10:10:35;;;;;;;10.77;9.57;;;17.20;99.90;;;;;;5109276;28;20048;-81
2023/05/15 10:13:04;;;;;;;11.82;10.63;;;15.30;99.90;;;;;;5091521;28;20467;-80
2023/05/15 10:15:30;;;;;;;13.00;9.35;;;15.30;99.90;;;;;;5108834;28;20045;-81
2023/05/15 10:17:59;;;;;;;12.40;9.82;;;15.20;99.90;;;;;;5107443;28;20048;-81
2023/05/15 10:20:25;;;;;;;11.63;10.43;;;17.50;99.90;;;;;;5108350;28;20074;-81
2023/05/15 10:22:54;;;;;;;10.95;9.90;;;15.50;99.90;;;;;;5109192;28;20070;-81
2023/05/15 10:25:38;;;;;;;12.65;10.57;;;15.50;99.90;;;;;;5090988;28;20461;-80
2023/05/15 10:28:08;;;;;;;18.30;12.20;;;15.60;99.90;;;;;;5109586;28;21241;-82
2023/05/15 10:30:36;;;;;;;15.30;11.15;;;15.70;99.90;;;;;;5109281;28;20315;-81
2023/05/15 10:33:03;;;;;;;11.35;10.23;;;15.80;99.90;;;;;;5092231;28;20043;-79
2023/05/15 10:35:29;;;;;;;11.32;9.95;;;15.80;99.90;;;;;;5094396;28;20043;-82
2023/05/15 10:37:57;;;;;;;10.57;9.48;;;15.90;99.90;;;;;;5112094;28;20047;-81
2023/05/15 10:40:26;;;;;;;12.52;10.23;;;15.90;99.90;;;;;;5094808;28;20040;-81
2023/05/15 10:42:54;;;;;;;13.90;9.77;;;16.00;99.90;;;;;;5110701;28;20050;-80
2023/05/15 10:45:20;;;;;;;10.68;9.63;;;16.10;99.90;;;;;;5078386;28;20051;-82
2023/05/15 10:47:46;;;;;;;10.55;9.52;;;16.10;99.90;;;;;;5109532;28;20050;-82
2023/05/15 10:50:12;;;;;;;9.73;8.75;;;16.10;99.90;;;;;;5109890;28;20061;-81
2023/05/15 10:52:39;;;;;;;8.80;8.00;;;16.30;99.90;;;;;;5110347;28;20039;-82
2023/05/15 10:55:12;;;;;;;10.23;8.75;;;16.40;99.90;;;;;;5092634;28;20089;-82
2023/05/15 10:57:41;;;;;;;9.00;8.15;;;16.50;99.90;;;;;;5110578;28;20056;-80
2023/05/15 11:00:32;;;;;;;10.02;8.57;;;16.70;99.90;;;;;;5109966;28;20032;-81
2023/05/15 11:02:59;;;;;;;10.75;7.82;;;16.90;99.90;;;;;;5109783;28;20093;-81
2023/05/15 11:05:25;;;;;;;8.30;7.20;;;17.00;99.90;;;;;;5097721;28;20039;-81
2023/05/15 11:08:20;;;;;;;8.65;7.70;;;17.10;99.90;;;;;;5113033;28;20067;-81
2023/05/15 11:10:45;;;;;;;11.25;8.60;;;17.10;99.90;;;;;;5110717;28;20416;-82
2023/05/15 11:13:11;;;;;;;9.45;8.38;;;17.10;99.90;;;;;;5111372;28;20558;-82
2023/05/15 11:15:45;;;;;;;11.48;8.85;;;17.10;99.90;;;;;;5092118;28;20105;-82
2023/05/15 11:18:11;;;;;;;9.15;8.07;;;17.20;99.90;;;;;;5075499;28;20085;-82
2023/05/15 11:21:01;;;;;;;10.93;9.82;;;17.20;99.90;;;;;;5093705;28;20122;-82
2023/05/15 11:23:26;;;;;;;10.30;9.30;;;17.20;99.90;;;;;;5082869;28;20406;-82
2023/05/15 11:25:55;;;;;;;10.82;9.82;;;17.10;99.90;;;;;;5091984;28;20373;-82
2023/05/15 11:28:26;;;;;;;13.13;10.40;;;17.10;99.90;;;;;;5137136;27;20051;-81
2023/05/15 11:30:59;;;;;;;10.40;9.50;;;17.10;99.90;;;;;;5109689;28;20051;-80
2023/05/15 11:33:32;;;;;;;11.60;10.57;;;17.10;99.90;;;;;;5077945;28;20044;-81
2023/05/15 11:36:17;;;;;;;11.93;10.73;;;17.10;99.90;;;;;;5109706;28;20112;-80
2023/05/15 11:38:42;;;;;;;14.35;12.90;;;17.20;99.90;;;;;;5108631;28;20054;-81
2023/05/15 11:41:20;;;;;;;14.00;12.27;;;17.30;99.90;;;;;;5090842;28;20040;-80
2023/05/15 11:43:49;;;;;;;12.55;11.25;;;17.20;99.90;;;;;;5109886;28;20354;-80
2023/05/15 11:46:15;;;;;;;12.73;10.75;;;17.20;99.90;;;;;;5091994;28;20031;-82
2023/05/15 11:48:46;;;;;;;19.40;11.25;;;17.20;99.90;;;;;;5092509;28;20542;-82
2023/05/15 11:51:23;;;;;;;11.05;10.07;;;17.20;99.90;;;;;;5092674;28;20039;-81
2023/05/15 11:53:50;;;;;;;9.48;8.40;;;17.20;99.90;;;;;;5092714;28;20387;-81
2023/05/15 11:56:17;;;;;;;11.90;8.70;;;17.10;99.90;;;;;;5093601;28;20050;-82
2023/05/15 11:58:43;;;;;;;9.18;8.35;;;17.00;99.90;;;;;;5109262;28;20054;-83
2023/05/15 12:01:12;;;;;;;10.30;8.65;;;16.80;99.90;;;;;;5109414;28;20391;-81
2023/05/15 12:03:47;;;;;;;9.57;8.32;;;16.60;99.90;;;;;;5109571;28;20036;-83
2023/05/15 12:06:13;;;;;;;8.32;7.50;;;16.50;99.90;;;;;;5108723;28;20040;-81
2023/05/15 12:08:40;;;;;;;9.98;7.63;;;17.00;99.90;;;;;;5110145;28;20357;-82
2023/05/15 12:11:07;;;;;;;7.15;6.40;;;18.20;99.90;;;;;;5123828;28;20080;-80
2023/05/15 12:13:36;;;;;;;7.88;6.57;;;16.70;99.90;;;;;;5103506;28;20043;-83
2023/05/15 12:16:02;;;;;;;9.50;7.18;;;17.40;99.90;;;;;;5109364;28;20039;-81
2023/05/15 12:18:30;;;;;;;9.70;6.50;;;16.70;99.90;;;;;;5105610;28;20046;-80
2023/05/15 12:21:00;;;;;;;9.82;7.88;;;17.40;99.90;;;;;;5092393;28;20027;-81
2023/05/15 12:23:27;;;;;;;8.20;7.50;;;17.00;99.90;;;;;;5100052;28;20077;-82
2023/05/15 12:25:59;;;;;;;6.80;6.22;;;17.10;99.90;;;;;;5086332;28;20040;-81
2023/05/15 12:28:26;;;;;;;9.07;8.15;;;17.10;99.90;;;;;;5085073;28;20048;-85
2023/05/15 12:30:52;;;;;;;10.20;8.38;;;17.20;99.90;;;;;;5091238;28;20031;-84
2023/05/15 12:33:18;;;;;;;8.55;7.75;;;17.30;99.90;;;;;;5097739;28;20047;-84
2023/05/15 12:35:50;;;;;;;10.02;8.18;;;17.40;99.90;;;;;;5093494;28;20402;-79